RYR180 EDDF-EHGG
Flight info
| Callsign | RYR180 |
|---|---|
| Flight time | 1h 5m |
| Altitude | 24000 |
| Route | MARUN2G MARUN Y152 ARPEG Z850 HMM L602 RKN |
| Aircraft | A20N/M-SDE2E3FGHIRWXY/LB1 |
Departure
| Time | 2026-05-05 14:27 |
|---|---|
| Airport | Frankfurt Main Airport (EDDF) |
Arrival
| Time | 2026-05-05 15:32 |
|---|---|
| Airport | Groningen Airport Eelde (EHGG) |
| Time | Latitude | Longitude | Altitude | Speed | Heading |
|---|---|---|---|---|---|
| 2026-05-05 13:43 | 50.04992 | 8.57599 | 346 ft | 0 kts | 20° |
| 2026-05-05 14:13 | 50.04990 | 8.57598 | 345 ft | 2 kts | 20° |
| 2026-05-05 14:14 | 50.04975 | 8.57589 | 358 ft | 2 kts | 20° |
| 2026-05-05 14:14 | 50.04960 | 8.57581 | 355 ft | 2 kts | 20° |
| 2026-05-05 14:14 | 50.04946 | 8.57568 | 354 ft | 2 kts | 59° |
| 2026-05-05 14:14 | 50.04941 | 8.57545 | 350 ft | 2 kts | 107° |
| 2026-05-05 14:15 | 50.04945 | 8.57527 | 352 ft | 0 kts | 114° |
| 2026-05-05 14:21 | 50.04935 | 8.57560 | 355 ft | 5 kts | 116° |
| 2026-05-05 14:21 | 50.04921 | 8.57607 | 349 ft | 4 kts | 115° |
| 2026-05-05 14:22 | 50.04910 | 8.57643 | 350 ft | 4 kts | 114° |
| 2026-05-05 14:22 | 50.04893 | 8.57704 | 348 ft | 6 kts | 114° |
| 2026-05-05 14:22 | 50.04877 | 8.57759 | 345 ft | 7 kts | 117° |
| 2026-05-05 14:22 | 50.04837 | 8.57857 | 353 ft | 10 kts | 130° |
| 2026-05-05 14:23 | 50.04782 | 8.57912 | 352 ft | 8 kts | 158° |
| 2026-05-05 14:23 | 50.04724 | 8.57948 | 354 ft | 9 kts | 158° |
| 2026-05-05 14:23 | 50.04671 | 8.57980 | 351 ft | 7 kts | 158° |
| 2026-05-05 14:23 | 50.04626 | 8.58013 | 352 ft | 7 kts | 152° |
| 2026-05-05 14:24 | 50.04591 | 8.58052 | 351 ft | 6 kts | 138° |
| 2026-05-05 14:24 | 50.04574 | 8.58096 | 351 ft | 4 kts | 106° |
| 2026-05-05 14:24 | 50.04574 | 8.58132 | 350 ft | 3 kts | 84° |
| 2026-05-05 14:24 | 50.04585 | 8.58201 | 346 ft | 9 kts | 73° |
| 2026-05-05 14:25 | 50.04606 | 8.58290 | 349 ft | 12 kts | 69° |
| 2026-05-05 14:25 | 50.04645 | 8.58478 | 348 ft | 17 kts | 86° |
| 2026-05-05 14:25 | 50.04600 | 8.58582 | 352 ft | 8 kts | 152° |
| 2026-05-05 14:25 | 50.04535 | 8.58608 | 346 ft | 13 kts | 183° |
| 2026-05-05 14:26 | 50.04417 | 8.58272 | 348 ft | 76 kts | 249° |
| 2026-05-05 14:26 | 50.04131 | 8.57094 | 349 ft | 153 kts | 249° |
| 2026-05-05 14:26 | 50.03727 | 8.55399 | 564 ft | 177 kts | 249° |
| 2026-05-05 14:26 | 50.03437 | 8.54168 | 694 ft | 191 kts | 249° |
| 2026-05-05 14:27 | 50.02946 | 8.52124 | 1233 ft | 207 kts | 249° |
| 2026-05-05 14:27 | 50.02315 | 8.50107 | 2102 ft | 210 kts | 231° |
| 2026-05-05 14:27 | 50.01181 | 8.48691 | 2957 ft | 213 kts | 204° |
| 2026-05-05 14:27 | 49.99248 | 8.47991 | 4044 ft | 217 kts | 191° |
| 2026-05-05 14:28 | 49.97706 | 8.47555 | 4658 ft | 237 kts | 191° |
| 2026-05-05 14:28 | 49.96576 | 8.47230 | 4976 ft | 252 kts | 191° |
| 2026-05-05 14:28 | 49.94840 | 8.46536 | 5742 ft | 261 kts | 196° |
| 2026-05-05 14:28 | 49.93077 | 8.45728 | 6512 ft | 267 kts | 199° |
| 2026-05-05 14:29 | 49.91500 | 8.44241 | 6752 ft | 269 kts | 228° |
| 2026-05-05 14:29 | 49.90718 | 8.41643 | 6819 ft | 272 kts | 262° |
| 2026-05-05 14:29 | 49.90827 | 8.38715 | 6825 ft | 276 kts | 287° |
| 2026-05-05 14:29 | 49.91895 | 8.36267 | 6827 ft | 280 kts | 320° |
| 2026-05-05 14:30 | 49.93634 | 8.34900 | 6864 ft | 284 kts | 340° |
| 2026-05-05 14:30 | 49.95499 | 8.33860 | 6859 ft | 284 kts | 338° |
| 2026-05-05 14:30 | 49.97335 | 8.32706 | 6857 ft | 285 kts | 336° |
| 2026-05-05 14:30 | 49.99158 | 8.31500 | 6864 ft | 285 kts | 335° |
| 2026-05-05 14:31 | 50.00975 | 8.30279 | 6857 ft | 285 kts | 335° |
| 2026-05-05 14:31 | 50.02793 | 8.29056 | 6864 ft | 285 kts | 335° |
| 2026-05-05 14:31 | 50.04700 | 8.28230 | 6858 ft | 287 kts | 356° |
| 2026-05-05 14:31 | 50.06658 | 8.28705 | 6864 ft | 287 kts | 18° |
| 2026-05-05 14:32 | 50.08554 | 8.29685 | 6858 ft | 287 kts | 18° |
| 2026-05-05 14:32 | 50.10449 | 8.30680 | 6857 ft | 287 kts | 19° |
| 2026-05-05 14:32 | 50.12347 | 8.31679 | 6939 ft | 291 kts | 19° |
| 2026-05-05 14:32 | 50.14258 | 8.32688 | 7860 ft | 290 kts | 19° |
| 2026-05-05 14:33 | 50.16181 | 8.33706 | 8805 ft | 292 kts | 19° |
| 2026-05-05 14:33 | 50.18118 | 8.34730 | 9668 ft | 296 kts | 19° |
| 2026-05-05 14:33 | 50.20085 | 8.35764 | 10426 ft | 300 kts | 19° |
| 2026-05-05 14:33 | 50.22074 | 8.36808 | 11191 ft | 303 kts | 19° |
| 2026-05-05 14:34 | 50.24093 | 8.37867 | 11943 ft | 307 kts | 19° |
| 2026-05-05 14:34 | 50.26131 | 8.38941 | 12808 ft | 311 kts | 19° |
| 2026-05-05 14:34 | 50.28202 | 8.40032 | 13692 ft | 317 kts | 19° |
| 2026-05-05 14:34 | 50.30306 | 8.41145 | 14377 ft | 321 kts | 19° |
| 2026-05-05 14:35 | 50.32439 | 8.42294 | 14720 ft | 325 kts | 20° |
| 2026-05-05 14:35 | 50.34575 | 8.43461 | 14811 ft | 325 kts | 20° |
| 2026-05-05 14:35 | 50.36684 | 8.44619 | 14821 ft | 325 kts | 20° |
| 2026-05-05 14:35 | 50.38122 | 8.45409 | 14819 ft | 325 kts | 20° |
| 2026-05-05 14:36 | 50.43234 | 8.48224 | 14815 ft | 325 kts | 20° |
| 2026-05-05 14:36 | 50.45367 | 8.49396 | 14818 ft | 325 kts | 20° |
| 2026-05-05 14:36 | 50.47505 | 8.50560 | 14820 ft | 325 kts | 19° |
| 2026-05-05 14:37 | 50.49657 | 8.51660 | 14813 ft | 325 kts | 18° |
| 2026-05-05 14:37 | 50.51820 | 8.52694 | 14818 ft | 325 kts | 17° |
| 2026-05-05 14:37 | 50.53992 | 8.53710 | 14817 ft | 325 kts | 17° |
| 2026-05-05 14:37 | 50.56164 | 8.54725 | 14822 ft | 326 kts | 17° |
| 2026-05-05 14:38 | 50.58347 | 8.55752 | 15120 ft | 329 kts | 17° |
| 2026-05-05 14:38 | 50.60545 | 8.56793 | 15831 ft | 332 kts | 17° |
| 2026-05-05 14:38 | 50.62766 | 8.57855 | 16488 ft | 335 kts | 17° |
| 2026-05-05 14:38 | 50.65012 | 8.58936 | 17151 ft | 339 kts | 17° |
| 2026-05-05 14:39 | 50.67282 | 8.60031 | 17794 ft | 344 kts | 17° |
| 2026-05-05 14:39 | 50.69587 | 8.61139 | 18398 ft | 348 kts | 17° |
| 2026-05-05 14:39 | 50.71910 | 8.62257 | 18970 ft | 351 kts | 17° |
| 2026-05-05 14:39 | 50.74259 | 8.63387 | 19530 ft | 354 kts | 17° |
| 2026-05-05 14:40 | 50.76595 | 8.64513 | 20082 ft | 357 kts | 17° |
| 2026-05-05 14:40 | 50.78980 | 8.65665 | 20626 ft | 361 kts | 17° |
| 2026-05-05 14:40 | 50.81455 | 8.66290 | 21137 ft | 362 kts | 355° |
| 2026-05-05 14:40 | 50.83859 | 8.65234 | 21640 ft | 361 kts | 328° |
| 2026-05-05 14:41 | 50.85806 | 8.62777 | 22145 ft | 359 kts | 309° |
| 2026-05-05 14:41 | 50.87348 | 8.59678 | 22660 ft | 359 kts | 301° |
| 2026-05-05 14:41 | 50.88720 | 8.56363 | 23205 ft | 362 kts | 299° |
| 2026-05-05 14:41 | 50.90098 | 8.53018 | 23649 ft | 365 kts | 301° |
| 2026-05-05 14:42 | 50.91568 | 8.49707 | 23785 ft | 367 kts | 303° |
| 2026-05-05 14:42 | 50.93127 | 8.46498 | 23830 ft | 368 kts | 306° |
| 2026-05-05 14:42 | 50.94760 | 8.43364 | 23830 ft | 369 kts | 307° |
| 2026-05-05 14:42 | 50.96430 | 8.40269 | 23831 ft | 369 kts | 308° |
| 2026-05-05 14:43 | 50.98111 | 8.37189 | 23831 ft | 369 kts | 308° |
| 2026-05-05 14:43 | 50.99789 | 8.34110 | 23830 ft | 369 kts | 309° |
| 2026-05-05 14:43 | 51.01618 | 8.31234 | 23830 ft | 372 kts | 318° |
| 2026-05-05 14:43 | 51.03719 | 8.28827 | 23830 ft | 374 kts | 327° |
| 2026-05-05 14:44 | 51.05986 | 8.26795 | 23834 ft | 374 kts | 328° |
| 2026-05-05 14:44 | 51.08257 | 8.24781 | 23835 ft | 374 kts | 328° |
| 2026-05-05 14:44 | 51.10526 | 8.22763 | 23835 ft | 374 kts | 328° |
| 2026-05-05 14:44 | 51.12794 | 8.20742 | 23837 ft | 374 kts | 328° |
| 2026-05-05 14:45 | 51.15064 | 8.18715 | 23838 ft | 374 kts | 328° |
| 2026-05-05 14:45 | 51.17330 | 8.16691 | 23848 ft | 374 kts | 328° |
| 2026-05-05 14:45 | 51.19598 | 8.14662 | 23849 ft | 374 kts | 328° |
| 2026-05-05 14:45 | 51.21835 | 8.12658 | 23849 ft | 374 kts | 328° |
| 2026-05-05 14:46 | 51.24103 | 8.10628 | 23858 ft | 374 kts | 328° |
| 2026-05-05 14:46 | 51.26372 | 8.08595 | 23860 ft | 374 kts | 328° |
| 2026-05-05 14:46 | 51.28643 | 8.06556 | 23855 ft | 374 kts | 328° |
| 2026-05-05 14:46 | 51.30913 | 8.04512 | 23854 ft | 375 kts | 328° |
| 2026-05-05 14:47 | 51.33180 | 8.02468 | 23865 ft | 374 kts | 328° |
| 2026-05-05 14:47 | 51.35450 | 8.00420 | 23867 ft | 374 kts | 328° |
| 2026-05-05 14:47 | 51.37717 | 7.98376 | 23866 ft | 374 kts | 328° |
| 2026-05-05 14:47 | 51.39981 | 7.96333 | 23866 ft | 374 kts | 328° |
| 2026-05-05 14:48 | 51.42251 | 7.94285 | 23865 ft | 374 kts | 328° |
| 2026-05-05 14:48 | 51.44519 | 7.92243 | 23865 ft | 374 kts | 328° |
| 2026-05-05 14:48 | 51.46786 | 7.90206 | 23866 ft | 374 kts | 329° |
| 2026-05-05 14:48 | 51.49158 | 7.88469 | 23866 ft | 376 kts | 338° |
| 2026-05-05 14:49 | 51.51659 | 7.87234 | 23862 ft | 377 kts | 341° |
| 2026-05-05 14:49 | 51.54176 | 7.86040 | 23861 ft | 377 kts | 341° |
| 2026-05-05 14:49 | 51.56685 | 7.84843 | 23870 ft | 377 kts | 341° |
| 2026-05-05 14:49 | 51.59198 | 7.83639 | 23867 ft | 377 kts | 341° |
| 2026-05-05 14:50 | 51.61708 | 7.82430 | 23866 ft | 377 kts | 341° |
| 2026-05-05 14:50 | 51.64222 | 7.81216 | 23866 ft | 377 kts | 341° |
| 2026-05-05 14:50 | 51.66732 | 7.80006 | 23866 ft | 377 kts | 341° |
| 2026-05-05 14:50 | 51.69246 | 7.78795 | 23867 ft | 377 kts | 341° |
| 2026-05-05 14:51 | 51.71761 | 7.77585 | 23864 ft | 377 kts | 341° |
| 2026-05-05 14:51 | 51.74272 | 7.76373 | 23881 ft | 377 kts | 341° |
| 2026-05-05 14:51 | 51.76787 | 7.75155 | 23880 ft | 377 kts | 341° |
| 2026-05-05 14:51 | 51.79300 | 7.73939 | 23883 ft | 377 kts | 341° |
| 2026-05-05 14:52 | 51.81757 | 7.72493 | 23889 ft | 374 kts | 331° |
| 2026-05-05 14:52 | 51.83979 | 7.70362 | 23894 ft | 370 kts | 320° |
| 2026-05-05 14:52 | 51.85900 | 7.67642 | 23903 ft | 366 kts | 309° |
| 2026-05-05 14:52 | 51.87467 | 7.64442 | 23903 ft | 361 kts | 299° |
| 2026-05-05 14:53 | 51.88639 | 7.60935 | 23904 ft | 358 kts | 292° |
| 2026-05-05 14:53 | 51.89708 | 7.57308 | 23903 ft | 358 kts | 292° |
| 2026-05-05 14:53 | 51.90802 | 7.53612 | 23902 ft | 358 kts | 292° |
| 2026-05-05 14:53 | 51.91880 | 7.49976 | 23899 ft | 358 kts | 292° |
| 2026-05-05 14:54 | 51.92941 | 7.46394 | 23893 ft | 358 kts | 292° |
| 2026-05-05 14:54 | 51.94017 | 7.42762 | 23892 ft | 358 kts | 292° |
| 2026-05-05 14:54 | 51.95091 | 7.39130 | 23891 ft | 358 kts | 292° |
| 2026-05-05 14:54 | 51.96164 | 7.35488 | 23889 ft | 358 kts | 292° |
| 2026-05-05 14:55 | 51.97233 | 7.31844 | 23894 ft | 358 kts | 292° |
| 2026-05-05 14:55 | 51.98304 | 7.28188 | 23882 ft | 359 kts | 292° |
| 2026-05-05 14:55 | 51.99378 | 7.24525 | 23878 ft | 360 kts | 292° |
| 2026-05-05 14:55 | 52.00452 | 7.20860 | 23875 ft | 360 kts | 292° |
| 2026-05-05 14:56 | 52.01526 | 7.17185 | 23880 ft | 361 kts | 292° |
| 2026-05-05 14:56 | 52.02598 | 7.13503 | 23880 ft | 361 kts | 292° |
| 2026-05-05 14:56 | 52.03671 | 7.09817 | 23881 ft | 361 kts | 292° |
| 2026-05-05 14:56 | 52.04741 | 7.06129 | 23876 ft | 361 kts | 292° |
| 2026-05-05 14:57 | 52.05811 | 7.02432 | 23879 ft | 362 kts | 292° |
| 2026-05-05 14:57 | 52.06883 | 6.98732 | 23882 ft | 362 kts | 292° |
| 2026-05-05 14:57 | 52.07954 | 6.95027 | 23885 ft | 362 kts | 292° |
| 2026-05-05 14:57 | 52.09017 | 6.91317 | 23895 ft | 362 kts | 292° |
| 2026-05-05 14:58 | 52.10070 | 6.87616 | 23909 ft | 361 kts | 292° |
| 2026-05-05 14:58 | 52.11121 | 6.83908 | 23911 ft | 360 kts | 292° |
| 2026-05-05 14:58 | 52.12170 | 6.80215 | 23912 ft | 360 kts | 292° |
| 2026-05-05 14:58 | 52.13285 | 6.76565 | 23910 ft | 361 kts | 300° |
| 2026-05-05 14:59 | 52.14818 | 6.73320 | 23915 ft | 362 kts | 307° |
| 2026-05-05 14:59 | 52.16402 | 6.70122 | 23913 ft | 363 kts | 307° |
| 2026-05-05 14:59 | 52.17953 | 6.66955 | 23908 ft | 362 kts | 306° |
| 2026-05-05 14:59 | 52.19518 | 6.63745 | 23898 ft | 362 kts | 306° |
| 2026-05-05 15:00 | 52.21081 | 6.60532 | 23903 ft | 362 kts | 306° |
| 2026-05-05 15:00 | 52.22137 | 6.58354 | 23899 ft | 362 kts | 306° |
| 2026-05-05 15:00 | 52.24202 | 6.54094 | 23897 ft | 362 kts | 306° |
| 2026-05-05 15:00 | 52.25766 | 6.50870 | 23902 ft | 362 kts | 306° |
| 2026-05-05 15:01 | 52.27330 | 6.47646 | 23903 ft | 362 kts | 306° |
| 2026-05-05 15:01 | 52.28892 | 6.44421 | 23902 ft | 362 kts | 306° |
| 2026-05-05 15:01 | 52.30451 | 6.41196 | 23911 ft | 362 kts | 306° |
| 2026-05-05 15:01 | 52.32010 | 6.37966 | 23910 ft | 362 kts | 306° |
| 2026-05-05 15:02 | 52.33569 | 6.34733 | 23906 ft | 362 kts | 306° |
| 2026-05-05 15:02 | 52.35125 | 6.31501 | 23913 ft | 362 kts | 306° |
| 2026-05-05 15:02 | 52.36688 | 6.28274 | 23919 ft | 362 kts | 308° |
| 2026-05-05 15:02 | 52.38620 | 6.25638 | 23917 ft | 366 kts | 332° |
| 2026-05-05 15:03 | 52.41049 | 6.24411 | 23922 ft | 368 kts | 349° |
| 2026-05-05 15:03 | 52.43610 | 6.24120 | 23920 ft | 370 kts | 359° |
| 2026-05-05 15:03 | 52.46181 | 6.24341 | 23916 ft | 371 kts | 4° |
| 2026-05-05 15:03 | 52.48747 | 6.24739 | 23914 ft | 371 kts | 4° |
| 2026-05-05 15:04 | 52.51325 | 6.25108 | 23896 ft | 370 kts | 3° |
| 2026-05-05 15:04 | 52.53885 | 6.25365 | 23534 ft | 368 kts | 1° |
| 2026-05-05 15:04 | 52.56432 | 6.25498 | 23096 ft | 365 kts | 360° |
| 2026-05-05 15:04 | 52.58962 | 6.25546 | 22657 ft | 362 kts | 359° |
| 2026-05-05 15:05 | 52.63964 | 6.25539 | 21831 ft | 357 kts | 358° |
| 2026-05-05 15:05 | 52.66443 | 6.25533 | 21409 ft | 355 kts | 358° |
| 2026-05-05 15:05 | 52.68902 | 6.25541 | 21009 ft | 352 kts | 358° |
| 2026-05-05 15:06 | 52.71310 | 6.25563 | 20631 ft | 350 kts | 359° |
| 2026-05-05 15:06 | 52.72950 | 6.25581 | 20359 ft | 348 kts | 358° |
| 2026-05-05 15:06 | 52.75367 | 6.25612 | 19968 ft | 346 kts | 358° |
| 2026-05-05 15:06 | 52.78521 | 6.26089 | 19485 ft | 345 kts | 19° |
| 2026-05-05 15:07 | 52.80658 | 6.27880 | 19094 ft | 345 kts | 30° |
| 2026-05-05 15:07 | 52.82692 | 6.29969 | 18739 ft | 343 kts | 32° |
| 2026-05-05 15:07 | 52.84677 | 6.32143 | 18382 ft | 342 kts | 32° |
| 2026-05-05 15:07 | 52.86649 | 6.34348 | 17956 ft | 341 kts | 33° |
| 2026-05-05 15:08 | 52.87974 | 6.35830 | 17702 ft | 340 kts | 32° |
| 2026-05-05 15:08 | 52.89934 | 6.37999 | 17317 ft | 338 kts | 32° |
| 2026-05-05 15:08 | 52.91895 | 6.40138 | 16949 ft | 336 kts | 32° |
| 2026-05-05 15:08 | 52.93845 | 6.42242 | 16609 ft | 334 kts | 31° |
| 2026-05-05 15:09 | 52.95787 | 6.44328 | 16248 ft | 332 kts | 31° |
| 2026-05-05 15:09 | 52.97693 | 6.46374 | 15936 ft | 329 kts | 31° |
| 2026-05-05 15:09 | 52.99634 | 6.48464 | 15596 ft | 327 kts | 31° |
| 2026-05-05 15:09 | 53.01514 | 6.50493 | 15271 ft | 326 kts | 31° |
| 2026-05-05 15:10 | 53.03402 | 6.52534 | 14964 ft | 323 kts | 31° |
| 2026-05-05 15:10 | 53.05280 | 6.54567 | 14617 ft | 322 kts | 31° |
| 2026-05-05 15:10 | 53.07151 | 6.56595 | 14325 ft | 320 kts | 31° |
| 2026-05-05 15:10 | 53.09010 | 6.58611 | 13987 ft | 319 kts | 30° |
| 2026-05-05 15:11 | 53.10868 | 6.60629 | 13638 ft | 319 kts | 30° |
| 2026-05-05 15:11 | 53.12716 | 6.62641 | 13297 ft | 316 kts | 31° |
| 2026-05-05 15:11 | 53.14554 | 6.64643 | 12945 ft | 314 kts | 31° |
| 2026-05-05 15:11 | 53.16331 | 6.66744 | 12590 ft | 314 kts | 43° |
| 2026-05-05 15:12 | 53.17697 | 6.69561 | 12275 ft | 313 kts | 53° |
| 2026-05-05 15:12 | 53.18974 | 6.72497 | 11875 ft | 313 kts | 53° |
| 2026-05-05 15:12 | 53.20178 | 6.75511 | 11550 ft | 311 kts | 64° |
| 2026-05-05 15:12 | 53.20591 | 6.78989 | 11222 ft | 307 kts | 97° |
| 2026-05-05 15:13 | 53.19900 | 6.82269 | 10828 ft | 300 kts | 130° |
| 2026-05-05 15:13 | 53.18326 | 6.84392 | 10472 ft | 290 kts | 161° |
| 2026-05-05 15:13 | 53.16382 | 6.84752 | 10142 ft | 279 kts | 195° |
| 2026-05-05 15:13 | 53.14739 | 6.83284 | 9949 ft | 269 kts | 229° |
| 2026-05-05 15:14 | 53.13937 | 6.80509 | 9940 ft | 273 kts | 263° |
| 2026-05-05 15:14 | 53.14222 | 6.77404 | 9949 ft | 277 kts | 291° |
| 2026-05-05 15:14 | 53.15044 | 6.74501 | 9945 ft | 277 kts | 293° |
| 2026-05-05 15:14 | 53.15874 | 6.71602 | 9944 ft | 278 kts | 293° |
| 2026-05-05 15:15 | 53.16379 | 6.68469 | 9909 ft | 281 kts | 272° |
| 2026-05-05 15:15 | 53.16105 | 6.65312 | 9581 ft | 275 kts | 248° |
| 2026-05-05 15:15 | 53.15097 | 6.62635 | 9193 ft | 275 kts | 231° |
| 2026-05-05 15:15 | 53.13859 | 6.60199 | 8747 ft | 275 kts | 230° |
| 2026-05-05 15:16 | 53.12629 | 6.57775 | 8418 ft | 273 kts | 231° |
| 2026-05-05 15:16 | 53.11411 | 6.55364 | 7993 ft | 273 kts | 231° |
| 2026-05-05 15:16 | 53.10194 | 6.52949 | 7622 ft | 271 kts | 230° |
| 2026-05-05 15:16 | 53.08981 | 6.50538 | 7217 ft | 272 kts | 231° |
| 2026-05-05 15:17 | 53.07771 | 6.48139 | 6867 ft | 270 kts | 230° |
| 2026-05-05 15:17 | 53.06567 | 6.45756 | 6516 ft | 267 kts | 230° |
| 2026-05-05 15:17 | 53.05376 | 6.43402 | 6139 ft | 266 kts | 230° |
| 2026-05-05 15:17 | 53.04136 | 6.41132 | 5703 ft | 266 kts | 218° |
| 2026-05-05 15:18 | 53.02447 | 6.40012 | 5292 ft | 265 kts | 182° |
| 2026-05-05 15:18 | 53.00687 | 6.40726 | 4868 ft | 264 kts | 146° |
| 2026-05-05 15:18 | 52.99531 | 6.42962 | 4449 ft | 261 kts | 110° |
| 2026-05-05 15:18 | 52.99395 | 6.45871 | 4043 ft | 254 kts | 72° |
| 2026-05-05 15:19 | 53.00330 | 6.48239 | 3718 ft | 246 kts | 36° |
| 2026-05-05 15:19 | 53.01796 | 6.49574 | 3578 ft | 235 kts | 27° |
| 2026-05-05 15:19 | 53.03223 | 6.50754 | 3450 ft | 224 kts | 27° |
| 2026-05-05 15:19 | 53.04596 | 6.51882 | 3206 ft | 219 kts | 27° |
| 2026-05-05 15:20 | 53.05994 | 6.53031 | 3106 ft | 235 kts | 27° |
| 2026-05-05 15:20 | 53.07493 | 6.54264 | 3098 ft | 243 kts | 27° |
| 2026-05-05 15:20 | 53.09015 | 6.55515 | 3101 ft | 245 kts | 28° |
| 2026-05-05 15:20 | 53.10529 | 6.56759 | 3114 ft | 243 kts | 28° |
| 2026-05-05 15:21 | 53.11998 | 6.58136 | 3112 ft | 244 kts | 41° |
| 2026-05-05 15:21 | 53.13048 | 6.60339 | 3116 ft | 244 kts | 54° |
| 2026-05-05 15:21 | 53.14059 | 6.62586 | 3114 ft | 242 kts | 51° |
| 2026-05-05 15:21 | 53.15110 | 6.64780 | 3117 ft | 243 kts | 51° |
| 2026-05-05 15:22 | 53.16179 | 6.66986 | 3116 ft | 244 kts | 51° |
| 2026-05-05 15:22 | 53.17223 | 6.69196 | 3113 ft | 242 kts | 56° |
| 2026-05-05 15:22 | 53.17768 | 6.71838 | 3113 ft | 246 kts | 85° |
| 2026-05-05 15:22 | 53.17486 | 6.74668 | 3116 ft | 253 kts | 111° |
| 2026-05-05 15:23 | 53.16435 | 6.77015 | 3114 ft | 257 kts | 138° |
| 2026-05-05 15:23 | 53.14811 | 6.78277 | 3113 ft | 263 kts | 167° |
| 2026-05-05 15:23 | 53.12977 | 6.78080 | 3111 ft | 271 kts | 198° |
| 2026-05-05 15:23 | 53.11403 | 6.76383 | 3115 ft | 271 kts | 227° |
| 2026-05-05 15:24 | 53.10241 | 6.73896 | 3117 ft | 273 kts | 234° |
| 2026-05-05 15:24 | 53.09105 | 6.71346 | 3114 ft | 274 kts | 234° |
| 2026-05-05 15:24 | 53.07969 | 6.68796 | 3114 ft | 275 kts | 234° |
| 2026-05-05 15:24 | 53.06822 | 6.66227 | 3117 ft | 276 kts | 234° |
| 2026-05-05 15:25 | 53.05685 | 6.63687 | 3116 ft | 274 kts | 234° |
| 2026-05-05 15:25 | 53.04553 | 6.61157 | 3114 ft | 271 kts | 234° |
| 2026-05-05 15:25 | 53.03425 | 6.58640 | 3113 ft | 273 kts | 234° |
| 2026-05-05 15:25 | 53.02284 | 6.56099 | 3100 ft | 273 kts | 234° |
| 2026-05-05 15:26 | 53.01185 | 6.53655 | 3097 ft | 255 kts | 234° |
| 2026-05-05 15:26 | 53.00150 | 6.51355 | 3099 ft | 244 kts | 233° |
| 2026-05-05 15:26 | 52.99136 | 6.49106 | 3102 ft | 244 kts | 234° |
| 2026-05-05 15:26 | 52.98121 | 6.46854 | 3104 ft | 244 kts | 233° |
| 2026-05-05 15:27 | 52.97127 | 6.44599 | 3091 ft | 241 kts | 240° |
| 2026-05-05 15:27 | 52.96655 | 6.41999 | 3094 ft | 239 kts | 274° |
| 2026-05-05 15:27 | 52.97044 | 6.39422 | 2856 ft | 228 kts | 305° |
| 2026-05-05 15:27 | 52.98129 | 6.37626 | 2559 ft | 219 kts | 333° |
| 2026-05-05 15:28 | 52.99519 | 6.36769 | 2291 ft | 211 kts | 355° |
| 2026-05-05 15:28 | 53.00968 | 6.36864 | 2037 ft | 206 kts | 17° |
| 2026-05-05 15:28 | 53.02218 | 6.37792 | 1990 ft | 187 kts | 36° |
| 2026-05-05 15:28 | 53.03107 | 6.39201 | 1986 ft | 170 kts | 52° |
| 2026-05-05 15:29 | 53.03787 | 6.40662 | 2001 ft | 154 kts | 50° |
| 2026-05-05 15:29 | 53.04441 | 6.42041 | 2043 ft | 151 kts | 51° |
| 2026-05-05 15:29 | 53.05091 | 6.43395 | 2115 ft | 150 kts | 51° |
| 2026-05-05 15:29 | 53.05735 | 6.44719 | 2154 ft | 142 kts | 50° |
| 2026-05-05 15:30 | 53.06345 | 6.45959 | 1845 ft | 136 kts | 48° |
| 2026-05-05 15:30 | 53.06935 | 6.47140 | 1490 ft | 130 kts | 49° |
| 2026-05-05 15:30 | 53.07495 | 6.48313 | 1138 ft | 129 kts | 50° |
| 2026-05-05 15:30 | 53.08023 | 6.49490 | 934 ft | 125 kts | 50° |
| 2026-05-05 15:31 | 53.08556 | 6.50618 | 806 ft | 123 kts | 49° |
| 2026-05-05 15:31 | 53.09088 | 6.51786 | 748 ft | 129 kts | 51° |
| 2026-05-05 15:31 | 53.09647 | 6.52973 | 522 ft | 132 kts | 49° |
| 2026-05-05 15:31 | 53.10193 | 6.54148 | 336 ft | 127 kts | 52° |
| 2026-05-05 15:32 | 53.10736 | 6.55307 | 197 ft | 125 kts | 49° |
| 2026-05-05 15:32 | 53.11240 | 6.56381 | 62 ft | 111 kts | 50° |
| 2026-05-05 15:32 | 53.11646 | 6.57212 | 26 ft | 54 kts | 50° |
| 2026-05-05 15:32 | 53.11836 | 6.57604 | 22 ft | 34 kts | 51° |
| 2026-05-05 15:33 | 53.12031 | 6.57757 | 23 ft | 31 kts | 12° |
| 2026-05-05 15:33 | 53.12232 | 6.57822 | 23 ft | 28 kts | 12° |
| 2026-05-05 15:33 | 53.12417 | 6.57910 | 20 ft | 26 kts | 34° |
| 2026-05-05 15:33 | 53.12514 | 6.58101 | 20 ft | 22 kts | 52° |
| 2026-05-05 15:34 | 53.12576 | 6.58236 | 21 ft | 0 kts | 53° |
| 2026-05-05 15:34 | 53.12584 | 6.58254 | 20 ft | 3 kts | 53° |
| 2026-05-05 15:34 | 53.12610 | 6.58312 | 20 ft | 10 kts | 53° |
| 2026-05-05 15:34 | 53.12667 | 6.58363 | 20 ft | 11 kts | 338° |
| 2026-05-05 15:35 | 53.12698 | 6.58337 | 20 ft | 0 kts | 327° |